KGRR

Gerald R Ford International Airport

Grand Rapids, Michigan, USA
METAR KGRR 181453Z 20006KT 10SM FEW030 06/M02 A3052 RMK AO2 SLP341 T00561017 51008
Observed Flight Rules
Oct-18 @ 14:53 UTC (an hour ago) Visual Flight Rules
Wind Visibility Clouds
200° at 6 knots 10 miles
  • Few at 3,000' AGL
Temperatures Readings
Current 6°C / 43°F
Dewpoint -2°C / 28°F
Humidity 57%
Altimeter 30.52" Hg
Pressure 1034.1 hPa
Elevation 237
METAR KGRR 181453Z 20006KT 10SM FEW030 06/M02 A3052 RMK AO2 SLP341 T00561017 51008
Observed Flight Rules
Oct-18 @ 14:53 UTC
(an hour ago)
VFR
Wind Visibility
200° at 6 knots 10 miles
Clouds
  • Few at 3,000' AGL
Temperature Dewpoint
6°C / 43°F -2°C / 28°F
Humidity Altimeter Pressure
57% 30.52" Hg 1034.1 hPa